Key West, FL

11:20 EDT le 22 octobre 2014 (GMT -0400)
Big Coppitt Key Gulfside | Change Station
CLOSE
Current Station
Stations météorologiques personnelles
Location: Key West, FL
Altitude: 9 m
Stations météo à proximité

Alt. 9 m 24.60 °N, 81.67 °W | Updated 5 minutes ago

Nuageux
Nuageux
26.5 ° C
Paraît 29 ° C
N
6.0
Vent Variable Vent de ENE

Aujourd'hui
Haut(e) -- | Bas -- ° C
--% Risque de précip.
Hier
Haut(e) -- | Bas -- ° C
Precip. -- mm
7:27 AM 6:53 PM
Lune descendante, 2% visible
Pression 1014 hPa
Visibilité 16.1 Kilomètres
Nuages Peu 609 m
Nuageux 1066 m
Nuageux 1828 m
Nuageux 5486 m
indice de chaleur 29 ° C
Point de rosée 23 ° C
Humidité 81%
Précipitations 0 mm
Profondeur de la couche neigeuse Non disponible.
UV 4 sur 12
Pollen 1.60 sur 12
Qualité de l'air Non disponible.
Flu Activity Local Activity
METAR KNQX 221453Z 09007KT 10SM FEW020 BKN035 BKN060 BKN180 26/24 A2995 RMK AO2 SLP142 T2 SET T02610239 51007 $

More Conditions Fewer Conditions

Pression 1014 hPa
Visibilité 16.1 Kilomètres
Nuages Peu 609 m
Nuageux 1066 m
Nuageux 1828 m
Nuageux 5486 m
indice de chaleur 29 ° C
Point de rosée 23 ° C
Humidité 81%
Précipitations 0 mm
Profondeur de la couche neigeuse Non disponible.
UV 4 sur 12
Pollen 1.60 sur 12
Qualité de l'air Non disponible.
Flu Activity Local Activity
METAR KNQX 221453Z 09007KT 10SM FEW020 BKN035 BKN060 BKN180 26/24 A2995 RMK AO2 SLP142 T2 SET T02610239 51007 $

More Conditions Fewer Conditions

10-Day Weather Forecast

Almanac

Astronomie

Oct. 22, 2014 Lever Coucher
Temps réel 07:27 EDT 18:53 EDT
Crépuscule civil 07:04 EDT 19:16 EDT
Crépuscule nautique 06:38 EDT 19:43 EDT
Crépuscule astronomique 06:11 EDT 20:09 EDT
Lune 06:15 EDT 18:14 EDT
Durée de lumière visible 12h 12m
Longueur du jour
11h 25m
Tomorrow will be 1m 19s shorter.
Lune descendante, 2% of the Moon is Illuminated
Aujourd'hui
Lune descendante
Oct 23
Nouveau
Oct 30
Premier quartier
Nov 6
Pleine lune
Nov 14
Dernier quartier

Extrêmes aujourd'hui

State Highs State Lows

Community

WunderPhotos

Upload Photos

1,763,949 Photos téléchargées !

Nearby

Épaisseur de neige

Station Depth Altitude
Pas de nouvelles chutes de neige

Activité sismique

Ville Distance Mag. Time & Date
No recent earthquake activity has been reported nearby.
Minimum magnitude displayed is 2.5.

Températures des eaux côtières

Lieu Température
Key West, FL 27.8 ° C
Vaca Key, FL 26.7 ° C

Stations météo à proximité